createdAt,value
2023-05-09T00:00:52.841Z,16.00
2023-05-09T00:03:16.298Z,16.00
2023-05-09T00:05:39.819Z,16.00
2023-05-09T00:08:04.638Z,16.00
2023-05-09T00:10:29.169Z,15.90
2023-05-09T00:12:52.443Z,15.90
2023-05-09T00:15:16.064Z,15.80
2023-05-09T00:17:40.042Z,15.90
2023-05-09T00:20:05.185Z,15.90
2023-05-09T00:22:29.765Z,15.90
2023-05-09T00:24:54.850Z,15.80
2023-05-09T00:27:18.534Z,15.80
2023-05-09T00:29:41.890Z,15.80
2023-05-09T00:32:05.817Z,15.80
2023-05-09T00:34:29.131Z,15.80
2023-05-09T00:36:52.396Z,15.80
2023-05-09T00:39:15.644Z,15.80
2023-05-09T00:41:40.615Z,15.90
2023-05-09T00:44:03.936Z,15.80
2023-05-09T00:46:27.442Z,15.80
2023-05-09T00:48:52.378Z,15.80
2023-05-09T00:51:16.089Z,15.80
2023-05-09T00:53:39.573Z,15.80
2023-05-09T00:56:03.687Z,15.80
2023-05-09T00:58:28.906Z,15.80
2023-05-09T01:00:52.203Z,15.80
2023-05-09T01:03:15.940Z,15.70
2023-05-09T01:05:47.916Z,15.70
2023-05-09T01:08:20.629Z,15.80
2023-05-09T01:10:50.638Z,15.80
2023-05-09T01:13:24.325Z,15.80
2023-05-09T01:15:57.319Z,15.80
2023-05-09T01:18:31.030Z,15.80
2023-05-09T01:21:01.825Z,15.80
2023-05-09T01:24:14.684Z,15.80
2023-05-09T01:26:47.003Z,15.80
2023-05-09T01:29:42.327Z,15.70
2023-05-09T01:32:11.748Z,15.70
2023-05-09T01:34:36.584Z,15.70
2023-05-09T01:37:02.359Z,15.70
2023-05-09T01:39:26.634Z,15.70
2023-05-09T01:41:50.360Z,15.80
2023-05-09T01:44:15.067Z,15.80
2023-05-09T01:46:41.037Z,15.70
2023-05-09T01:49:05.030Z,15.70
2023-05-09T01:51:29.938Z,15.80
2023-05-09T01:53:55.619Z,15.80
2023-05-09T01:56:21.592Z,15.70
2023-05-09T01:58:48.238Z,15.70
2023-05-09T02:01:14.758Z,15.80
2023-05-09T02:03:40.534Z,15.80
2023-05-09T02:06:06.549Z,15.70
2023-05-09T02:08:30.469Z,15.80
2023-05-09T02:10:54.074Z,15.80
2023-05-09T02:13:17.559Z,15.70
2023-05-09T02:15:41.812Z,15.70
2023-05-09T02:18:05.541Z,15.80
2023-05-09T02:20:30.441Z,15.80
2023-05-09T02:22:53.804Z,15.80
2023-05-09T02:25:18.644Z,15.80
2023-05-09T02:27:44.450Z,15.80
2023-05-09T02:30:14.094Z,15.80
2023-05-09T02:32:40.136Z,15.80
2023-05-09T02:35:06.373Z,15.80
2023-05-09T02:37:31.805Z,15.80
2023-05-09T02:39:55.734Z,15.80
2023-05-09T02:42:25.168Z,15.80
2023-05-09T02:44:48.558Z,15.80
2023-05-09T02:47:12.374Z,15.90
2023-05-09T02:49:35.887Z,15.80
2023-05-09T02:52:01.423Z,15.90
2023-05-09T02:54:26.136Z,15.90
2023-05-09T02:56:49.415Z,15.90
2023-05-09T02:59:12.760Z,15.90
2023-05-09T03:01:36.086Z,15.80
2023-05-09T03:04:00.307Z,15.80
2023-05-09T03:06:23.611Z,15.80
2023-05-09T03:08:46.962Z,15.80
2023-05-09T03:11:11.687Z,15.90
2023-05-09T03:13:35.055Z,15.90
2023-05-09T03:15:58.323Z,15.90
2023-05-09T03:18:21.646Z,15.90
2023-05-09T03:20:44.898Z,15.90
2023-05-09T03:23:08.290Z,15.80
2023-05-09T03:25:31.561Z,15.80
2023-05-09T03:27:56.177Z,15.80
2023-05-09T03:30:20.403Z,15.80
2023-05-09T03:32:45.895Z,15.80
2023-05-09T03:35:09.896Z,15.90
2023-05-09T03:37:33.545Z,15.90
2023-05-09T03:39:56.902Z,15.80
2023-05-09T03:42:20.154Z,15.80
2023-05-09T03:44:48.948Z,15.80
2023-05-09T03:47:12.930Z,15.80
2023-05-09T03:49:36.887Z,15.80
2023-05-09T03:52:00.432Z,15.80
2023-05-09T03:54:23.830Z,15.90
2023-05-09T03:56:47.552Z,15.90
2023-05-09T03:59:10.874Z,15.90
2023-05-09T04:01:35.574Z,15.90
2023-05-09T04:04:00.173Z,15.90
2023-05-09T04:06:24.888Z,15.90
2023-05-09T04:08:48.155Z,15.80
2023-05-09T04:11:11.524Z,15.80
2023-05-09T04:13:38.061Z,15.80
2023-05-09T04:16:09.826Z,15.90
2023-05-09T04:18:34.654Z,15.80
2023-05-09T04:20:57.984Z,15.80
2023-05-09T04:23:21.365Z,15.80
2023-05-09T04:25:44.891Z,15.80
2023-05-09T04:28:08.337Z,15.80
2023-05-09T04:30:31.674Z,15.80
2023-05-09T04:32:55.814Z,15.80
2023-05-09T04:35:21.485Z,15.80
2023-05-09T04:37:46.491Z,15.80
2023-05-09T04:40:11.563Z,15.80
2023-05-09T04:42:44.107Z,15.80
2023-05-09T04:45:09.400Z,15.80
2023-05-09T04:47:33.025Z,15.80
2023-05-09T04:49:56.313Z,15.80
2023-05-09T04:52:20.949Z,15.80
2023-05-09T04:54:44.933Z,15.80
2023-05-09T04:57:17.749Z,15.70
2023-05-09T04:59:44.225Z,15.80
2023-05-09T05:02:10.427Z,15.80
2023-05-09T05:04:33.997Z,15.80
2023-05-09T05:06:57.664Z,15.80
2023-05-09T05:09:22.319Z,15.90
2023-05-09T05:11:58.370Z,15.90
2023-05-09T05:14:24.826Z,15.90
2023-05-09T05:16:48.150Z,15.80
2023-05-09T05:19:12.530Z,15.80
2023-05-09T05:21:37.764Z,15.80
2023-05-09T05:24:02.004Z,15.90
2023-05-09T05:26:26.834Z,16.00
2023-05-09T05:28:55.328Z,16.00
2023-05-09T05:31:18.836Z,16.00
2023-05-09T05:33:42.256Z,16.00
2023-05-09T05:36:06.275Z,16.00
2023-05-09T05:38:29.616Z,16.10
2023-05-09T05:40:54.169Z,16.10
2023-05-09T05:43:19.560Z,16.20
2023-05-09T05:45:42.940Z,16.10
2023-05-09T05:48:11.538Z,16.20
2023-05-09T05:50:36.677Z,16.30
2023-05-09T05:53:00.456Z,16.40
2023-05-09T05:55:23.941Z,16.40
2023-05-09T05:57:47.724Z,16.40
2023-05-09T06:00:15.494Z,16.50
2023-05-09T06:02:47.913Z,16.50
2023-05-09T06:05:18.970Z,16.50
2023-05-09T06:07:44.102Z,16.40
2023-05-09T06:10:09.378Z,16.40
2023-05-09T06:12:32.668Z,16.50
2023-05-09T06:14:56.034Z,16.50
2023-05-09T06:17:21.182Z,16.60
2023-05-09T06:19:44.463Z,16.60
2023-05-09T06:22:07.790Z,16.80
2023-05-09T06:24:35.613Z,16.80
2023-05-09T06:27:00.046Z,17.00
2023-05-09T06:29:23.289Z,16.90
2023-05-09T06:31:46.640Z,16.80
2023-05-09T06:34:11.294Z,16.90
2023-05-09T06:36:34.674Z,17.00
2023-05-09T06:38:57.968Z,17.00
2023-05-09T06:41:21.529Z,17.00
2023-05-09T06:43:44.869Z,17.10
2023-05-09T06:46:08.173Z,17.20
2023-05-09T06:48:31.662Z,17.20
2023-05-09T06:50:56.330Z,17.20
2023-05-09T06:53:19.673Z,17.20
2023-05-09T06:55:43.526Z,17.30
2023-05-09T06:58:06.977Z,17.30
2023-05-09T07:00:30.325Z,17.40
2023-05-09T07:02:53.715Z,17.40
2023-05-09T07:05:17.499Z,17.30
2023-05-09T07:07:42.249Z,17.30
2023-05-09T07:10:11.279Z,17.40
2023-05-09T07:12:35.885Z,17.20
2023-05-09T07:14:59.218Z,17.30
2023-05-09T07:17:24.121Z,17.40
2023-05-09T07:19:47.616Z,17.30
2023-05-09T07:22:10.922Z,17.40
2023-05-09T07:24:35.662Z,17.50
2023-05-09T07:26:58.876Z,17.50
2023-05-09T07:29:22.193Z,17.60
2023-05-09T07:31:45.706Z,17.70
2023-05-09T07:34:09.029Z,17.80
2023-05-09T07:36:34.818Z,17.70
2023-05-09T07:38:58.804Z,17.70
2023-05-09T07:41:23.582Z,17.90
2023-05-09T07:43:46.918Z,17.90
2023-05-09T07:46:10.228Z,18.00
2023-05-09T07:48:33.553Z,18.00
2023-05-09T07:50:56.838Z,18.10
2023-05-09T07:53:20.186Z,18.40
2023-05-09T07:55:44.659Z,18.20
2023-05-09T07:58:09.703Z,18.40
2023-05-09T08:00:33.083Z,18.50
2023-05-09T08:02:56.487Z,18.80
2023-05-09T08:05:20.072Z,19.00
2023-05-09T08:07:43.413Z,19.00
2023-05-09T08:10:08.419Z,19.20
2023-05-09T08:12:31.701Z,19.40
2023-05-09T08:14:56.327Z,19.00
2023-05-09T08:17:19.560Z,19.20
2023-05-09T08:19:42.851Z,19.30
2023-05-09T08:22:06.130Z,19.60
2023-05-09T08:24:29.914Z,19.60
2023-05-09T08:26:53.219Z,19.50
2023-05-09T08:29:17.654Z,19.30
2023-05-09T08:31:42.349Z,20.10
2023-05-09T08:34:05.695Z,20.20
2023-05-09T08:36:28.907Z,19.40
2023-05-09T08:38:52.888Z,19.70
2023-05-09T08:41:16.559Z,20.00
2023-05-09T08:43:41.680Z,19.90
2023-05-09T08:46:08.680Z,20.00
2023-05-09T08:48:37.522Z,20.00
2023-05-09T08:51:01.120Z,20.00
2023-05-09T08:53:24.634Z,19.60
2023-05-09T08:55:48.084Z,19.80
2023-05-09T08:58:11.783Z,20.00
2023-05-09T09:00:35.786Z,20.00
2023-05-09T09:03:04.002Z,19.80
2023-05-09T09:07:59.621Z,20.00
2023-05-09T09:10:25.803Z,19.90
2023-05-09T09:12:50.383Z,19.90
2023-05-09T09:15:19.518Z,20.40
2023-05-09T09:17:44.841Z,20.70
2023-05-09T09:20:13.596Z,20.50
2023-05-09T09:22:43.968Z,20.80
2023-05-09T09:25:07.801Z,20.80
2023-05-09T09:27:32.752Z,20.50
2023-05-09T09:29:56.079Z,20.60
2023-05-09T09:32:19.952Z,20.80
2023-05-09T09:37:24.420Z,20.80
2023-05-09T09:39:56.875Z,20.50
2023-05-09T09:42:20.383Z,20.90
2023-05-09T09:44:43.645Z,20.60
2023-05-09T09:47:11.939Z,20.70
2023-05-09T09:49:35.336Z,20.50
2023-05-09T09:51:59.875Z,20.60
2023-05-09T09:54:23.987Z,20.60
2023-05-09T09:56:50.417Z,20.60
2023-05-09T09:59:15.497Z,20.50
2023-05-09T10:01:56.831Z,20.50
2023-05-09T10:04:20.111Z,20.50
2023-05-09T10:06:54.181Z,20.50
2023-05-09T10:09:18.260Z,20.40
2023-05-09T10:11:42.044Z,20.40
2023-05-09T10:14:07.044Z,20.20
2023-05-09T10:16:42.658Z,20.40
2023-05-09T10:19:07.962Z,20.30
2023-05-09T10:21:31.773Z,20.60
2023-05-09T10:23:56.382Z,20.70
2023-05-09T10:26:27.427Z,20.80
2023-05-09T10:28:56.331Z,20.80
2023-05-09T10:31:27.357Z,21.00
2023-05-09T10:33:52.244Z,21.10
2023-05-09T10:36:20.464Z,21.10
2023-05-09T10:38:44.898Z,21.10
2023-05-09T10:41:10.261Z,21.30
2023-05-09T10:43:36.698Z,21.20
2023-05-09T10:46:00.314Z,21.40
2023-05-09T10:48:25.306Z,21.40
2023-05-09T10:50:49.502Z,21.10
2023-05-09T10:53:14.404Z,21.10
2023-05-09T10:55:39.961Z,21.30
2023-05-09T10:58:20.610Z,21.20
2023-05-09T11:00:44.340Z,21.10
2023-05-09T11:03:08.906Z,21.50
2023-05-09T11:05:40.546Z,21.60
2023-05-09T11:08:25.199Z,21.80
2023-05-09T11:10:49.565Z,21.70
2023-05-09T11:13:12.901Z,21.50
2023-05-09T11:15:38.057Z,21.40
2023-05-09T11:18:08.879Z,21.50
2023-05-09T11:20:36.011Z,21.60
2023-05-09T11:23:01.147Z,21.50
2023-05-09T11:25:28.415Z,21.50
2023-05-09T11:27:52.161Z,21.60
2023-05-09T11:30:18.261Z,21.30
2023-05-09T11:32:47.537Z,21.40
2023-05-09T11:35:14.943Z,21.00
2023-05-09T11:37:48.026Z,21.10
2023-05-09T11:40:14.553Z,21.10
2023-05-09T11:42:37.848Z,20.80
2023-05-09T11:45:01.134Z,20.90
2023-05-09T11:47:24.847Z,20.90
2023-05-09T11:49:49.466Z,21.00
2023-05-09T11:52:12.828Z,20.90
2023-05-09T11:54:40.200Z,20.50
2023-05-09T11:57:03.743Z,20.20
2023-05-09T11:59:27.298Z,20.00
2023-05-09T12:01:50.581Z,20.00
2023-05-09T12:04:13.980Z,18.90
2023-05-09T12:06:37.772Z,18.50
2023-05-09T12:09:01.168Z,18.30
2023-05-09T12:11:26.258Z,18.30
2023-05-09T12:13:52.238Z,18.30
2023-05-09T12:16:16.469Z,18.50
2023-05-09T12:18:39.821Z,18.20
2023-05-09T12:21:03.799Z,18.30
2023-05-09T12:23:27.105Z,18.50
2023-05-09T12:25:54.295Z,18.60
2023-05-09T12:28:19.530Z,18.50
2023-05-09T12:30:43.870Z,18.50
2023-05-09T12:33:10.373Z,18.60
2023-05-09T12:35:35.328Z,18.50
2023-05-09T12:38:00.105Z,18.50
2023-05-09T12:40:23.648Z,18.10
2023-05-09T12:42:47.235Z,17.50
2023-05-09T12:45:13.357Z,17.00
2023-05-09T12:47:38.774Z,16.60
2023-05-09T12:50:04.319Z,16.50
2023-05-09T12:52:34.577Z,16.60
2023-05-09T12:55:07.838Z,16.80
2023-05-09T12:57:31.677Z,17.00
2023-05-09T13:00:00.115Z,17.10
2023-05-09T13:02:27.057Z,16.90
2023-05-09T13:04:50.594Z,17.00
2023-05-09T13:07:13.893Z,17.20
2023-05-09T13:09:37.489Z,17.00
2023-05-09T13:12:01.096Z,17.00
2023-05-09T13:14:24.655Z,17.10
2023-05-09T13:16:47.958Z,17.10
2023-05-09T13:19:12.570Z,17.30
2023-05-09T13:21:37.060Z,17.00
2023-05-09T13:24:00.347Z,17.10
2023-05-09T13:26:23.867Z,16.80
2023-05-09T13:28:47.098Z,17.00
2023-05-09T13:31:10.685Z,17.20
2023-05-09T13:33:34.127Z,17.10
2023-05-09T13:35:58.854Z,16.90
2023-05-09T13:38:22.138Z,17.10
2023-05-09T13:40:45.392Z,17.00
2023-05-09T13:43:08.638Z,17.00
2023-05-09T13:45:31.946Z,17.00
2023-05-09T13:47:55.502Z,17.10
2023-05-09T13:50:19.065Z,17.10
2023-05-09T13:52:43.647Z,17.00
2023-05-09T13:55:07.932Z,17.00
2023-05-09T13:57:31.237Z,17.00
2023-05-09T13:59:54.510Z,17.10
2023-05-09T14:02:18.717Z,17.10
2023-05-09T14:04:42.945Z,17.10
2023-05-09T14:07:06.667Z,17.10
2023-05-09T14:09:31.321Z,17.10
2023-05-09T14:11:55.528Z,17.10
2023-05-09T14:14:18.999Z,17.00
2023-05-09T14:16:42.282Z,17.00
2023-05-09T14:19:07.054Z,17.00
2023-05-09T14:21:30.431Z,16.70
2023-05-09T14:23:53.705Z,16.70
2023-05-09T14:26:19.112Z,16.60
2023-05-09T14:28:42.550Z,16.50
2023-05-09T14:31:06.349Z,16.60
2023-05-09T14:33:29.663Z,16.50
2023-05-09T14:35:53.090Z,16.50
2023-05-09T14:38:16.440Z,16.60
2023-05-09T14:40:39.704Z,16.60
2023-05-09T14:43:04.337Z,16.50
2023-05-09T14:45:27.944Z,16.60
2023-05-09T14:47:51.395Z,16.60
2023-05-09T14:50:16.104Z,16.50
2023-05-09T14:52:39.489Z,16.60
2023-05-09T14:55:03.501Z,16.60
2023-05-09T14:57:26.911Z,16.60
2023-05-09T14:59:52.084Z,16.30
2023-05-09T15:02:15.245Z,16.10
2023-05-09T15:04:38.554Z,16.20
2023-05-09T15:07:01.841Z,16.20
2023-05-09T15:09:25.040Z,16.30
2023-05-09T15:11:49.269Z,16.10
2023-05-09T15:14:12.710Z,16.10
2023-05-09T15:16:37.425Z,16.40
2023-05-09T15:19:00.932Z,16.40
2023-05-09T15:21:24.293Z,16.30
2023-05-09T15:23:47.964Z,16.30
2023-05-09T15:26:12.330Z,16.00
2023-05-09T15:28:35.614Z,16.00
2023-05-09T15:30:59.977Z,16.00
2023-05-09T15:33:25.076Z,16.10
2023-05-09T15:35:50.124Z,16.10
2023-05-09T15:38:14.373Z,16.20
2023-05-09T15:40:37.603Z,16.20
2023-05-09T15:43:08.010Z,16.00
2023-05-09T15:45:33.975Z,16.00
2023-05-09T15:47:57.336Z,15.80
2023-05-09T15:50:22.234Z,15.80
2023-05-09T15:52:45.707Z,15.70
2023-05-09T15:55:12.805Z,15.70
2023-05-09T15:57:36.515Z,15.60
2023-05-09T15:59:59.840Z,15.60
2023-05-09T16:02:23.816Z,15.80
2023-05-09T16:04:47.368Z,15.80
2023-05-09T16:07:12.199Z,15.70
2023-05-09T16:09:35.452Z,15.70
2023-05-09T16:11:58.696Z,15.70
2023-05-09T16:14:22.138Z,15.60
2023-05-09T16:16:47.052Z,15.50
2023-05-09T16:19:10.727Z,15.50
2023-05-09T16:21:34.290Z,15.20
2023-05-09T16:24:00.151Z,15.30
2023-05-09T16:26:23.423Z,15.40
2023-05-09T16:28:46.704Z,15.20
2023-05-09T16:31:10.070Z,15.20
2023-05-09T16:33:33.879Z,15.30
2023-05-09T16:35:57.477Z,15.20
2023-05-09T16:38:20.701Z,15.00
2023-05-09T16:40:45.369Z,15.10
2023-05-09T16:43:08.696Z,15.00
2023-05-09T16:45:32.112Z,15.00
2023-05-09T16:47:58.454Z,15.10
2023-05-09T16:50:22.797Z,15.00
2023-05-09T16:52:46.033Z,14.80
2023-05-09T16:55:10.140Z,14.70
2023-05-09T16:57:34.896Z,14.80
2023-05-09T16:59:58.492Z,14.80
2023-05-09T17:02:21.835Z,14.60
2023-05-09T17:04:45.520Z,14.70
2023-05-09T17:07:08.791Z,14.80
2023-05-09T17:09:32.110Z,14.60
2023-05-09T17:11:55.567Z,14.60
2023-05-09T17:14:20.114Z,14.80
2023-05-09T17:16:43.477Z,14.70
2023-05-09T17:19:06.802Z,14.80
2023-05-09T17:21:30.798Z,14.80
2023-05-09T17:23:54.214Z,14.80
2023-05-09T17:26:17.516Z,14.80
2023-05-09T17:28:40.864Z,14.80
2023-05-09T17:31:05.757Z,14.90
2023-05-09T17:33:30.135Z,14.90
2023-05-09T17:35:53.467Z,14.90
2023-05-09T17:38:16.818Z,14.80
2023-05-09T17:40:40.650Z,14.80
2023-05-09T17:43:04.026Z,14.70
2023-05-09T17:45:27.311Z,14.70
2023-05-09T17:47:52.029Z,14.80
2023-05-09T17:50:17.220Z,14.80
2023-05-09T17:52:40.866Z,14.70
2023-05-09T17:55:05.786Z,14.70
2023-05-09T17:57:29.037Z,14.70
2023-05-09T17:59:52.434Z,14.80
2023-05-09T18:02:16.747Z,14.60
2023-05-09T18:04:41.493Z,14.60
2023-05-09T18:07:04.926Z,14.50
2023-05-09T18:09:28.262Z,14.60
2023-05-09T18:11:51.517Z,14.60
2023-05-09T18:14:15.160Z,14.60
2023-05-09T18:16:38.554Z,14.60
2023-05-09T18:19:02.826Z,14.60
2023-05-09T18:21:29.250Z,14.60
2023-05-09T18:23:52.749Z,14.70
2023-05-09T18:26:16.033Z,14.70
2023-05-09T18:28:40.151Z,14.60
2023-05-09T18:31:03.638Z,14.70
2023-05-09T18:33:29.012Z,14.60
2023-05-09T18:35:54.567Z,14.50
2023-05-09T18:38:19.277Z,14.60
2023-05-09T18:40:43.125Z,14.60
2023-05-09T18:43:07.912Z,14.60
2023-05-09T18:45:31.659Z,14.60
2023-05-09T18:47:54.910Z,14.60
2023-05-09T18:50:19.313Z,14.50
2023-05-09T18:52:44.323Z,14.50
2023-05-09T18:55:10.346Z,14.50
2023-05-09T18:57:33.867Z,14.50
2023-05-09T18:59:57.228Z,14.50
2023-05-09T19:02:20.708Z,14.50
2023-05-09T19:04:46.093Z,14.50
2023-05-09T19:07:10.119Z,14.60
2023-05-09T19:09:33.591Z,14.50
2023-05-09T19:11:59.592Z,14.60
2023-05-09T19:14:22.902Z,14.60
2023-05-09T19:16:46.256Z,14.60
2023-05-09T19:19:09.949Z,14.60
2023-05-09T19:21:34.239Z,14.60
2023-05-09T19:23:57.587Z,14.50
2023-05-09T19:26:21.955Z,14.50
2023-05-09T19:28:47.504Z,14.30
2023-05-09T19:31:10.890Z,14.10
2023-05-09T19:33:34.848Z,14.00
2023-05-09T19:35:58.133Z,14.00
2023-05-09T19:38:21.398Z,14.00
2023-05-09T19:40:44.747Z,14.00
2023-05-09T19:43:08.372Z,14.00
2023-05-09T19:45:33.443Z,13.90
2023-05-09T19:47:56.757Z,13.80
2023-05-09T19:50:20.493Z,13.80
2023-05-09T19:52:43.878Z,13.80
2023-05-09T19:55:08.346Z,13.70
2023-05-09T19:57:31.643Z,13.70
2023-05-09T19:59:55.668Z,13.80
2023-05-09T20:02:20.322Z,13.70
2023-05-09T20:04:49.604Z,13.60
2023-05-09T20:07:13.174Z,13.70
2023-05-09T20:09:36.681Z,13.70
2023-05-09T20:12:00.195Z,13.60
2023-05-09T20:14:23.815Z,13.70
2023-05-09T20:16:47.089Z,13.60
2023-05-09T20:19:14.534Z,13.60
2023-05-09T20:21:37.842Z,13.50
2023-05-09T20:24:01.178Z,13.60
2023-05-09T20:26:25.307Z,13.70
2023-05-09T20:28:48.656Z,13.60
2023-05-09T20:31:12.221Z,13.60
2023-05-09T20:33:35.534Z,13.60
2023-05-09T20:36:00.790Z,13.70
2023-05-09T20:38:24.013Z,13.60
2023-05-09T20:40:47.315Z,13.60
2023-05-09T20:43:10.520Z,13.70
2023-05-09T20:45:34.086Z,13.60
2023-05-09T20:47:57.530Z,13.50
2023-05-09T20:50:20.911Z,13.70
2023-05-09T20:52:45.639Z,13.70
2023-05-09T20:55:10.061Z,13.70
2023-05-09T20:57:33.355Z,13.70
2023-05-09T20:59:56.589Z,13.70
2023-05-09T21:02:19.923Z,13.70
2023-05-09T21:04:43.262Z,13.70
2023-05-09T21:07:06.731Z,13.60
2023-05-09T21:09:31.453Z,13.70
2023-05-09T21:11:54.697Z,13.60
2023-05-09T21:14:18.061Z,13.60
2023-05-09T21:16:43.713Z,13.50
2023-05-09T21:19:08.785Z,13.50
2023-05-09T21:21:32.947Z,13.50
2023-05-09T21:23:56.224Z,13.50
2023-05-09T21:26:22.795Z,13.50
2023-05-09T21:28:46.099Z,13.50
2023-05-09T21:31:11.278Z,13.60
2023-05-09T21:33:35.301Z,13.50
2023-05-09T21:35:59.234Z,13.50
2023-05-09T21:38:22.487Z,13.50
2023-05-09T21:40:45.667Z,13.50
2023-05-09T21:43:10.317Z,13.40
2023-05-09T21:45:34.031Z,13.50
2023-05-09T21:47:57.541Z,13.50
2023-05-09T21:50:21.104Z,13.50
2023-05-09T21:52:44.310Z,13.50
2023-05-09T21:55:07.846Z,13.50
2023-05-09T21:57:31.097Z,13.50
2023-05-09T21:59:56.248Z,13.40
2023-05-09T22:02:19.842Z,13.50
2023-05-09T22:04:43.185Z,13.40
2023-05-09T22:07:06.433Z,13.50
2023-05-09T22:09:29.839Z,13.40
2023-05-09T22:11:53.909Z,13.40
2023-05-09T22:14:17.220Z,13.50
2023-05-09T22:16:42.057Z,13.50
2023-05-09T22:19:05.516Z,13.50
2023-05-09T22:21:29.320Z,13.50
2023-05-09T22:23:53.564Z,13.40
2023-05-09T22:26:16.828Z,13.40
2023-05-09T22:28:40.186Z,13.40
2023-05-09T22:31:03.453Z,13.40
2023-05-09T22:33:28.100Z,13.30
2023-05-09T22:35:51.339Z,13.40
2023-05-09T22:38:14.617Z,13.40
2023-05-09T22:40:37.939Z,13.40
2023-05-09T22:43:01.170Z,13.40
2023-05-09T22:45:24.482Z,13.40
2023-05-09T22:47:47.802Z,13.40
2023-05-09T22:50:13.997Z,13.50
2023-05-09T22:52:37.362Z,13.50
2023-05-09T22:55:00.689Z,13.40
2023-05-09T22:57:23.928Z,13.40
2023-05-09T22:59:47.301Z,13.50
2023-05-09T23:02:10.643Z,13.40
2023-05-09T23:04:33.950Z,13.50
2023-05-09T23:06:58.610Z,13.40
2023-05-09T23:09:22.270Z,13.40
2023-05-09T23:11:45.487Z,13.40
2023-05-09T23:14:08.916Z,13.30
2023-05-09T23:16:32.278Z,13.30
2023-05-09T23:18:55.558Z,13.40
2023-05-09T23:21:18.835Z,13.30
2023-05-09T23:23:43.411Z,13.40
2023-05-09T23:26:06.620Z,13.40
2023-05-09T23:28:29.915Z,13.30
2023-05-09T23:30:54.142Z,13.40
2023-05-09T23:33:17.978Z,13.40
2023-05-09T23:35:41.280Z,13.40
2023-05-09T23:38:04.822Z,13.40
2023-05-09T23:40:29.466Z,13.40
2023-05-09T23:42:52.713Z,13.50
2023-05-09T23:45:16.273Z,13.50
2023-05-09T23:47:39.616Z,13.40
2023-05-09T23:50:03.049Z,13.50
2023-05-09T23:52:26.409Z,13.40
2023-05-09T23:54:49.709Z,13.40
2023-05-09T23:57:14.438Z,13.30
2023-05-09T23:59:37.882Z,13.20
